PWSweather.com
Personal Weather Stations
Station Observations
AS787
Cloppers Mill East, Germantown, MD 20874-2154

Cloppers Mill EastGermantown, MD 20874-2154

Lat: 39.1522, Lon: -77.2679

Elevation: 318

Station Type: 1-Wire

http://www.cloppermillweather.org/

High Low Average
Temperature 66.3°F19.1°C 35.3°F1.8°C 53.6°F12.0°C
Dew Point 59.0°F15.0°C 27.8°F-2.3°C 48.4°F9.1°C
Winds 4.3 mph 6.9 kmh Calm Calm 1.0 mph S1.6 kmh S
Wind Gusts 9.0 mph14.5 kmh -- 2.0 mph3.2 kmh
Humidity 96% 64% 83%
Pressure 30.24 in1024.0 mb 29.63 in1003.4 mb -
Precipitation 0.00 in0.0 mm - -
Hour Temp Dew Point Humidity Winds Wind Gusts Pressure Precip Precip Rate Daily Precip Total
12:14 AM 66.2°F19.0°C 58.7°F14.8°C 76% 0.6 mph SSW1.0 kmh SSW 3.0 mph4.8 kmh 29.67 in1004.7 mb 0.00 in0.0 mm 0.00 in0.0 mm 0.00 in0.0 mm
12:44 AM 66.3°F19.1°C 58.9°F14.9°C 77% 0.5 mph S0.8 kmh S 3.0 mph4.8 kmh 29.66 in1004.4 mb 0.00 in0.0 mm 0.00 in0.0 mm 0.00 in0.0 mm
01:14 AM 66.3°F19.1°C 59.0°F15.0°C 77% Calm Calm -- 29.67 in1004.7 mb 0.00 in0.0 mm 0.00 in0.0 mm 0.00 in0.0 mm
01:44 AM 62.7°F17.1°C 58.8°F14.9°C 87% Calm Calm -- 29.65 in1004.1 mb 0.01 in0.3 mm 0.02 in0.5 mm 0.01 in0.3 mm
02:14 AM 60.7°F15.9°C 57.8°F14.3°C 90% Calm Calm -- 29.63 in1003.4 mb 0.00 in0.0 mm 0.00 in0.0 mm 0.01 in0.3 mm
02:44 AM 59.7°F15.4°C 57.4°F14.1°C 92% Calm Calm -- 29.64 in1003.7 mb 0.00 in0.0 mm 0.00 in0.0 mm 0.01 in0.3 mm
03:14 AM 60.3°F15.7°C 57.8°F14.3°C 91% Calm Calm -- 29.64 in1003.7 mb 0.00 in0.0 mm 0.00 in0.0 mm 0.01 in0.3 mm
03:44 AM 59.5°F15.3°C 57.2°F14.0°C 92% Calm Calm -- 29.64 in1003.7 mb 0.00 in0.0 mm 0.00 in0.0 mm 0.01 in0.3 mm
04:14 AM 59.0°F15.0°C 57.3°F14.1°C 94% Calm Calm -- 29.65 in1004.1 mb 0.02 in0.5 mm 0.04 in1.0 mm 0.03 in0.8 mm
04:44 AM 60.0°F15.6°C 58.5°F14.7°C 95% Calm Calm 1.0 mph1.6 kmh 29.65 in1004.1 mb 0.12 in3.0 mm 0.20 in5.1 mm 0.13 in3.3 mm
05:14 AM 59.8°F15.4°C 58.1°F14.5°C 94% Calm Calm -- 29.64 in1003.7 mb 0.00 in0.0 mm 0.00 in0.0 mm 0.13 in3.3 mm
05:44 AM 59.2°F15.1°C 57.6°F14.2°C 94% Calm Calm -- 29.66 in1004.4 mb 0.00 in0.0 mm 0.00 in0.0 mm 0.13 in3.3 mm
06:14 AM 59.2°F15.1°C 57.8°F14.3°C 95% Calm Calm -- 29.67 in1004.7 mb 0.00 in0.0 mm 0.00 in0.0 mm 0.13 in3.3 mm
06:44 AM 59.0°F15.0°C 57.6°F14.2°C 95% Calm Calm -- 29.68 in1005.1 mb 0.00 in0.0 mm 0.00 in0.0 mm 0.13 in3.3 mm
07:14 AM 58.3°F14.6°C 56.9°F13.8°C 95% Calm Calm -- 29.69 in1005.4 mb 0.00 in0.0 mm 0.00 in0.0 mm 0.13 in3.3 mm
07:44 AM 57.4°F14.1°C 56.0°F13.3°C 95% Calm Calm -- 29.69 in1005.4 mb 0.00 in0.0 mm 0.00 in0.0 mm 0.13 in3.3 mm
08:14 AM 56.8°F13.8°C 55.4°F13.0°C 95% Calm Calm -- 29.69 in1005.4 mb 0.00 in0.0 mm 0.00 in0.0 mm 0.13 in3.3 mm
08:44 AM 56.4°F13.6°C 55.0°F12.8°C 95% Calm Calm -- 29.71 in1006.1 mb 0.00 in0.0 mm 0.00 in0.0 mm 0.13 in3.3 mm
09:14 AM 56.1°F13.4°C 55.0°F12.8°C 96% Calm Calm -- 29.72 in1006.4 mb 0.00 in0.0 mm 0.00 in0.0 mm 0.13 in3.3 mm
09:44 AM 56.5°F13.6°C 55.4°F13.0°C 96% Calm Calm -- 29.73 in1006.8 mb 0.01 in0.3 mm 0.02 in0.5 mm 0.14 in3.6 mm
10:14 AM 57.4°F14.1°C 56.3°F13.5°C 96% 0.1 mph SW0.2 kmh SW 2.0 mph3.2 kmh 29.74 in1007.1 mb 0.00 in0.0 mm 0.00 in0.0 mm 0.14 in3.6 mm
10:44 AM 57.9°F14.4°C 56.6°F13.7°C 95% Calm Calm -- 29.72 in1006.4 mb 0.00 in0.0 mm 0.00 in0.0 mm 0.14 in3.6 mm
11:14 AM 59.3°F15.2°C 55.6°F13.1°C 87% Calm Calm -- 29.71 in1006.1 mb 0.00 in0.0 mm 0.00 in0.0 mm 0.14 in3.6 mm
11:44 AM 60.1°F15.6°C 55.2°F12.9°C 84% Calm Calm -- 29.72 in1006.4 mb 0.00 in0.0 mm 0.00 in0.0 mm 0.14 in3.6 mm
12:14 PM 60.4°F15.8°C 55.0°F12.8°C 82% Calm Calm -- 29.71 in1006.1 mb 0.00 in0.0 mm 0.00 in0.0 mm 0.14 in3.6 mm
12:44 PM 60.7°F15.9°C 55.1°F12.8°C 82% Calm Calm -- 29.71 in1006.1 mb 0.00 in0.0 mm 0.00 in0.0 mm 0.14 in3.6 mm
01:14 PM 59.8°F15.4°C 55.8°F13.2°C 87% Calm Calm 1.0 mph1.6 kmh 29.72 in1006.4 mb 0.02 in0.5 mm 0.04 in1.0 mm 0.16 in4.1 mm
01:44 PM 59.6°F15.3°C 55.5°F13.1°C 86% Calm Calm 1.0 mph1.6 kmh 29.73 in1006.8 mb 0.02 in0.5 mm 0.00 in0.0 mm 0.16 in4.1 mm
02:14 PM 60.9°F16.1°C 55.7°F13.2°C 83% 4.3 mph SSW6.9 kmh SSW 7.0 mph11.3 kmh 29.76 in1007.8 mb 0.01 in0.3 mm 0.00 in0.0 mm 0.16 in4.1 mm
02:44 PM 55.4°F13.0°C 51.6°F10.9°C 87% 2.6 mph 4.2 kmh 9.0 mph14.5 kmh 29.76 in1007.8 mb 0.02 in0.5 mm 0.02 in0.5 mm 0.17 in4.3 mm
03:14 PM 55.0°F12.8°C 51.9°F11.1°C 89% 1.8 mph 2.9 kmh 6.0 mph9.7 kmh 29.79 in1008.8 mb 0.00 in0.0 mm 0.00 in0.0 mm 0.17 in4.3 mm
03:44 PM 53.4°F11.9°C 47.3°F8.5°C 80% 1.5 mph NNW2.4 kmh NNW 9.0 mph14.5 kmh 29.82 in1009.8 mb 0.01 in0.3 mm 0.02 in0.5 mm 0.18 in4.6 mm
04:14 PM 52.4°F11.3°C 45.8°F7.7°C 78% 0.6 mph NNW1.0 kmh NNW 4.0 mph6.4 kmh 29.83 in1010.2 mb 0.00 in0.0 mm 0.00 in0.0 mm 0.18 in4.6 mm
04:44 PM 53.0°F11.7°C 45.8°F7.7°C 76% 0.8 mph SSE1.3 kmh SSE 4.0 mph6.4 kmh 29.86 in1011.2 mb 0.00 in0.0 mm 0.00 in0.0 mm 0.18 in4.6 mm
05:14 PM 52.8°F11.6°C 45.9°F7.7°C 77% Calm Calm 2.0 mph3.2 kmh 29.86 in1011.2 mb 0.00 in0.0 mm 0.00 in0.0 mm 0.18 in4.6 mm
05:44 PM 52.9°F11.6°C 45.6°F7.6°C 76% 0.4 mph SE0.6 kmh SE 3.0 mph4.8 kmh 29.88 in1011.9 mb 0.00 in0.0 mm 0.00 in0.0 mm 0.18 in4.6 mm
06:14 PM 51.6°F10.9°C 43.2°F6.2°C 73% 3.2 mph 5.1 kmh 7.0 mph11.3 kmh 29.92 in1013.2 mb 0.00 in0.0 mm 0.00 in0.0 mm 0.18 in4.6 mm
06:44 PM 49.9°F9.9°C 41.1°F5.1°C 72% 1.0 mph NNW1.6 kmh NNW 6.0 mph9.7 kmh 29.95 in1014.2 mb 0.00 in0.0 mm 0.00 in0.0 mm 0.18 in4.6 mm
07:14 PM 47.9°F8.8°C 38.2°F3.4°C 69% 1.7 mph ESE2.7 kmh ESE 8.0 mph12.9 kmh 29.98 in1015.2 mb 0.00 in0.0 mm 0.00 in0.0 mm 0.18 in4.6 mm
07:44 PM 46.2°F7.9°C 35.4°F1.9°C 66% 2.1 mph NNW3.4 kmh NNW 7.0 mph11.3 kmh 30.01 in1016.3 mb 0.00 in0.0 mm 0.00 in0.0 mm 0.18 in4.6 mm
08:14 PM 44.8°F7.1°C 35.0°F1.7°C 68% 0.8 mph S1.3 kmh S 9.0 mph14.5 kmh 30.05 in1017.6 mb 0.00 in0.0 mm 0.00 in0.0 mm 0.18 in4.6 mm
08:44 PM 43.7°F6.5°C 34.3°F1.3°C 69% Calm Calm 7.0 mph11.3 kmh 30.09 in1019.0 mb 0.00 in0.0 mm 0.00 in0.0 mm 0.18 in4.6 mm
09:14 PM 43.1°F6.2°C 33.7°F0.9°C 69% 2.1 mph 3.4 kmh 4.0 mph6.4 kmh 30.12 in1020.0 mb 0.00 in0.0 mm 0.00 in0.0 mm 0.18 in4.6 mm
09:44 PM 42.0°F5.6°C 30.9°F-0.6°C 64% 1.9 mph NNW3.1 kmh NNW 6.0 mph9.7 kmh 30.14 in1020.7 mb 0.00 in0.0 mm 0.00 in0.0 mm 0.18 in4.6 mm
10:14 PM 40.6°F4.8°C 29.3°F-1.5°C 64% 0.5 mph NNE0.8 kmh NNE 6.0 mph9.7 kmh 30.17 in1021.7 mb 0.00 in0.0 mm 0.00 in0.0 mm 0.18 in4.6 mm
10:44 PM 39.5°F4.2°C 28.9°F-1.7°C 66% 0.7 mph 1.1 kmh 2.0 mph3.2 kmh 30.20 in1022.7 mb 0.00 in0.0 mm 0.00 in0.0 mm 0.18 in4.6 mm
11:14 PM 38.8°F3.8°C 28.4°F-2.0°C 66% Calm Calm -- 30.20 in1022.7 mb 0.00 in0.0 mm 0.00 in0.0 mm 0.18 in4.6 mm
11:44 PM 37.4°F3.0°C 27.8°F-2.3°C 68% Calm Calm -- 30.22 in1023.4 mb 0.00 in0.0 mm 0.00 in0.0 mm 0.18 in4.6 mm